createdAt,value
2018-01-15T00:00:38.963Z,-0.50
2018-01-15T00:03:06.530Z,-0.60
2018-01-15T00:05:34.075Z,-0.50
2018-01-15T00:08:01.630Z,-0.50
2018-01-15T00:10:29.176Z,-0.50
2018-01-15T00:12:57.496Z,-0.50
2018-01-15T00:15:25.811Z,-0.50
2018-01-15T00:17:53.347Z,-0.50
2018-01-15T00:20:20.920Z,-0.50
2018-01-15T00:22:48.475Z,-0.60
2018-01-15T00:25:16.029Z,-0.60
2018-01-15T00:27:43.585Z,-0.50
2018-01-15T00:30:11.132Z,-0.60
2018-01-15T00:32:39.435Z,-0.50
2018-01-15T00:35:06.979Z,-0.60
2018-01-15T00:37:35.320Z,-0.50
2018-01-15T00:40:02.860Z,-0.50
2018-01-15T00:42:31.163Z,-0.50
2018-01-15T00:44:58.712Z,-0.50
2018-01-15T00:47:26.260Z,-0.50
2018-01-15T00:49:53.800Z,-0.50
2018-01-15T00:52:22.108Z,-0.60
2018-01-15T00:54:49.647Z,-0.60
2018-01-15T00:57:17.950Z,-0.50
2018-01-15T00:59:45.491Z,-0.50
2018-01-15T01:02:15.731Z,-0.50
2018-01-15T01:04:43.273Z,-0.50
2018-01-15T01:07:11.590Z,-0.50
2018-01-15T01:09:39.141Z,-0.50
2018-01-15T01:12:06.684Z,-0.50
2018-01-15T01:14:35.002Z,-0.60
2018-01-15T01:17:02.554Z,-0.60
2018-01-15T01:19:30.124Z,-0.60
2018-01-15T01:21:57.667Z,-0.60
2018-01-15T01:24:25.215Z,-0.60
2018-01-15T01:26:52.765Z,-0.50
2018-01-15T01:29:20.315Z,-0.60
2018-01-15T01:31:47.865Z,-0.60
2018-01-15T01:34:15.412Z,-0.60
2018-01-15T01:36:42.959Z,-0.60
2018-01-15T01:39:10.495Z,-0.60
2018-01-15T01:41:38.804Z,-0.60
2018-01-15T01:44:06.351Z,-0.60
2018-01-15T01:46:34.663Z,-0.60
2018-01-15T01:49:02.208Z,-0.60
2018-01-15T01:51:29.743Z,-0.60
2018-01-15T01:53:58.100Z,-0.60
2018-01-15T01:56:25.649Z,-0.70
2018-01-15T01:58:53.184Z,-0.70
2018-01-15T02:01:20.723Z,-0.60
2018-01-15T02:03:49.121Z,-0.70
2018-01-15T02:06:16.668Z,-0.70
2018-01-15T02:08:44.975Z,-0.80
2018-01-15T02:11:12.519Z,-0.80
2018-01-15T02:13:40.824Z,-0.70
2018-01-15T02:16:08.372Z,-0.70
2018-01-15T02:18:36.679Z,-0.70
2018-01-15T02:21:04.219Z,-0.80
2018-01-15T02:23:31.768Z,-0.80
2018-01-15T02:26:00.071Z,-0.80
2018-01-15T02:28:27.632Z,-0.80
2018-01-15T02:30:55.183Z,-0.80
2018-01-15T02:33:23.500Z,-0.80
2018-01-15T02:35:51.049Z,-0.80
2018-01-15T02:38:18.606Z,-0.80
2018-01-15T02:40:46.193Z,-0.80
2018-01-15T02:43:13.742Z,-0.80
2018-01-15T02:45:41.293Z,-0.80
2018-01-15T02:48:08.836Z,-0.80
2018-01-15T02:50:37.147Z,-0.80
2018-01-15T02:53:04.691Z,-0.80
2018-01-15T02:55:32.248Z,-0.80
2018-01-15T02:58:00.560Z,-0.80
2018-01-15T03:00:28.103Z,-0.90
2018-01-15T03:02:56.440Z,-0.80
2018-01-15T03:05:23.999Z,-0.90
2018-01-15T03:07:51.537Z,-0.90
2018-01-15T03:10:19.075Z,-0.90
2018-01-15T03:12:46.639Z,-0.90
2018-01-15T03:15:14.951Z,-0.90
2018-01-15T03:17:42.500Z,-0.90
2018-01-15T03:20:10.103Z,-0.90
2018-01-15T03:22:37.654Z,-0.90
2018-01-15T03:25:05.196Z,-0.90
2018-01-15T03:27:32.757Z,-0.90
2018-01-15T03:30:00.302Z,-0.90
2018-01-15T03:32:27.916Z,-0.90
2018-01-15T03:34:55.463Z,-0.90
2018-01-15T03:37:23.010Z,-0.90
2018-01-15T03:39:50.551Z,-0.90
2018-01-15T03:42:18.859Z,-0.90
2018-01-15T03:44:46.400Z,-0.90
2018-01-15T03:47:14.744Z,-0.90
2018-01-15T03:49:42.280Z,-0.90
2018-01-15T03:52:09.820Z,-0.90
2018-01-15T03:54:37.411Z,-0.90
2018-01-15T03:57:04.955Z,-0.90
2018-01-15T03:59:32.491Z,-0.90
2018-01-15T04:02:00.059Z,-0.90
2018-01-15T04:04:28.411Z,-0.90
2018-01-15T04:06:55.961Z,-0.90
2018-01-15T04:09:23.500Z,-0.90
2018-01-15T04:11:51.076Z,-0.90
2018-01-15T04:14:18.663Z,-0.90
2018-01-15T04:16:46.206Z,-0.90
2018-01-15T04:19:13.756Z,-0.90
2018-01-15T04:21:41.296Z,-0.90
2018-01-15T04:24:09.615Z,-0.90
2018-01-15T04:26:37.188Z,-0.90
2018-01-15T04:29:04.734Z,-0.90
2018-01-15T04:31:32.268Z,-0.90
2018-01-15T04:34:00.583Z,-0.90
2018-01-15T04:36:28.132Z,-0.90
2018-01-15T04:38:55.684Z,-0.90
2018-01-15T04:41:23.994Z,-0.90
2018-01-15T04:43:51.572Z,-0.90
2018-01-15T04:46:19.116Z,-0.90
2018-01-15T04:48:46.663Z,-1.00
2018-01-15T04:51:14.210Z,-0.90
2018-01-15T04:53:42.517Z,-0.90
2018-01-15T04:56:10.060Z,-1.00
2018-01-15T04:58:38.378Z,-0.90
2018-01-15T05:01:05.932Z,-0.90
2018-01-15T05:03:33.511Z,-0.90
2018-01-15T05:06:01.060Z,-0.90
2018-01-15T05:08:28.627Z,-0.90
2018-01-15T05:10:56.223Z,-0.90
2018-01-15T05:13:23.764Z,-0.90
2018-01-15T05:15:51.316Z,-0.90
2018-01-15T05:18:18.859Z,-0.90
2018-01-15T05:20:47.172Z,-1.00
2018-01-15T05:23:14.864Z,-1.00
2018-01-15T05:25:42.656Z,-1.00
2018-01-15T05:28:10.208Z,-1.00
2018-01-15T05:30:38.004Z,-1.00
2018-01-15T05:33:06.324Z,-1.00
2018-01-15T05:35:33.863Z,-1.00
2018-01-15T05:38:01.419Z,-1.00
2018-01-15T05:40:29.732Z,-1.00
2018-01-15T05:42:57.325Z,-1.10
2018-01-15T05:45:24.880Z,-1.00
2018-01-15T05:47:52.428Z,-1.00
2018-01-15T05:50:20.026Z,-1.10
2018-01-15T05:52:47.974Z,-1.10
2018-01-15T05:55:15.519Z,-1.00
2018-01-15T05:57:43.064Z,-1.10
2018-01-15T06:00:11.370Z,-1.10
2018-01-15T06:02:38.920Z,-1.10
2018-01-15T06:05:06.978Z,-1.10
2018-01-15T06:07:34.531Z,-1.10
2018-01-15T06:10:02.836Z,-1.20
2018-01-15T06:12:30.388Z,-1.20
2018-01-15T06:14:58.700Z,-1.20
2018-01-15T06:17:26.244Z,-1.20
2018-01-15T06:19:53.794Z,-1.20
2018-01-15T06:22:22.107Z,-1.30
2018-01-15T06:24:49.664Z,-1.30
2018-01-15T06:27:17.203Z,-1.30
2018-01-15T06:29:45.511Z,-1.40
2018-01-15T06:32:13.241Z,-1.40
2018-01-15T06:34:41.595Z,-1.40
2018-01-15T06:37:09.144Z,-1.40
2018-01-15T06:39:40.022Z,-1.40
2018-01-15T06:42:07.669Z,-1.40
2018-01-15T06:44:35.240Z,-1.30
2018-01-15T06:47:02.817Z,-1.40
2018-01-15T06:49:30.390Z,-1.40
2018-01-15T06:51:58.795Z,-1.30
2018-01-15T06:54:26.377Z,-1.40
2018-01-15T06:56:53.948Z,-1.40
2018-01-15T06:59:21.549Z,-1.30
2018-01-15T07:01:49.113Z,-1.30
2018-01-15T07:04:16.694Z,-1.30
2018-01-15T07:06:44.262Z,-1.30
2018-01-15T07:09:12.584Z,-1.40
2018-01-15T07:11:40.144Z,-1.40
2018-01-15T07:14:07.712Z,-1.40
2018-01-15T07:16:35.276Z,-1.30
2018-01-15T07:19:02.865Z,-1.30
2018-01-15T07:21:30.436Z,-1.30
2018-01-15T07:23:57.992Z,-1.30
2018-01-15T07:26:25.555Z,-1.30
2018-01-15T07:28:53.137Z,-1.20
2018-01-15T07:31:20.694Z,-1.30
2018-01-15T07:33:48.265Z,-1.20
2018-01-15T07:36:15.829Z,-1.20
2018-01-15T07:38:44.283Z,-1.20
2018-01-15T07:41:12.560Z,-1.20
2018-01-15T07:43:40.130Z,-1.20
2018-01-15T07:46:07.694Z,-1.20
2018-01-15T07:48:36.980Z,-1.20
2018-01-15T07:51:05.738Z,-1.20
2018-01-15T07:53:34.100Z,-1.20
2018-01-15T07:56:01.675Z,-1.20
2018-01-15T07:58:29.260Z,-1.10
2018-01-15T08:00:57.584Z,-1.10
2018-01-15T08:03:25.136Z,-1.10
2018-01-15T08:05:52.692Z,-1.10
2018-01-15T08:08:20.240Z,-1.10
2018-01-15T08:10:47.783Z,-1.10
2018-01-15T08:13:15.323Z,-1.10
2018-01-15T08:15:42.887Z,-1.10
2018-01-15T08:18:10.627Z,-1.00
2018-01-15T08:20:38.175Z,-1.00
2018-01-15T08:23:05.895Z,-1.00
2018-01-15T08:25:33.677Z,-1.00
2018-01-15T08:28:02.015Z,-1.00
2018-01-15T08:30:30.335Z,-1.00
2018-01-15T08:32:57.911Z,-1.00
2018-01-15T08:35:26.229Z,-0.90
2018-01-15T08:37:53.779Z,-0.90
2018-01-15T08:40:21.343Z,-0.90
2018-01-15T08:42:48.887Z,-0.90
2018-01-15T08:45:17.200Z,-0.90
2018-01-15T08:47:44.868Z,-0.90
2018-01-15T08:50:12.412Z,-0.80
2018-01-15T08:52:39.963Z,-0.90
2018-01-15T08:55:08.277Z,-0.90
2018-01-15T08:57:35.827Z,-0.90
2018-01-15T09:00:03.375Z,-0.80
2018-01-15T09:02:31.727Z,-0.80
2018-01-15T09:04:59.276Z,-0.80
2018-01-15T09:07:28.452Z,-0.70
2018-01-15T09:09:56.036Z,-0.80
2018-01-15T09:12:23.580Z,-0.70
2018-01-15T09:14:51.169Z,-0.70
2018-01-15T09:17:19.718Z,-0.70
2018-01-15T09:19:47.288Z,-0.60
2018-01-15T09:22:14.844Z,-0.60
2018-01-15T09:24:42.403Z,-0.60
2018-01-15T09:27:10.715Z,-0.50
2018-01-15T09:29:38.265Z,-0.60
2018-01-15T09:32:05.820Z,-0.50
2018-01-15T09:34:33.388Z,-0.50
2018-01-15T09:37:00.996Z,-0.50
2018-01-15T09:39:28.548Z,-0.50
2018-01-15T09:41:56.096Z,-0.50
2018-01-15T09:44:23.643Z,-0.40
2018-01-15T09:46:51.237Z,-0.50
2018-01-15T09:49:18.833Z,-0.50
2018-01-15T09:51:46.400Z,-0.40
2018-01-15T09:54:14.763Z,-0.30
2018-01-15T09:56:44.406Z,-0.30
2018-01-15T09:59:13.769Z,-0.20
2018-01-15T10:01:41.315Z,-0.20
2018-01-15T10:04:08.892Z,-0.10
2018-01-15T10:06:36.500Z,-0.30
2018-01-15T10:09:04.127Z,-0.30
2018-01-15T10:11:31.643Z,-0.30
2018-01-15T10:13:59.955Z,-0.30
2018-01-15T10:16:27.927Z,-0.30
2018-01-15T10:18:56.646Z,-0.30
2018-01-15T10:21:25.187Z,-0.30
2018-01-15T10:23:52.738Z,-0.50
2018-01-15T10:26:21.056Z,-0.30
2018-01-15T10:28:48.603Z,-0.40
2018-01-15T10:31:16.160Z,-0.30
2018-01-15T10:33:43.706Z,-0.30
2018-01-15T10:36:12.015Z,-0.40
2018-01-15T10:38:40.646Z,-0.40
2018-01-15T10:41:08.282Z,-0.30
2018-01-15T10:43:35.867Z,-0.30
2018-01-15T10:46:03.427Z,-0.40
2018-01-15T10:48:30.979Z,-0.40
2018-01-15T10:50:58.585Z,-0.40
2018-01-15T10:53:26.153Z,-0.50
2018-01-15T10:55:53.739Z,-0.60
2018-01-15T10:58:21.421Z,-0.60
2018-01-15T11:00:51.760Z,-0.60
2018-01-15T11:03:19.314Z,-0.60
2018-01-15T11:05:46.873Z,-0.60
2018-01-15T11:08:14.436Z,-0.60
2018-01-15T11:10:41.984Z,-0.60
2018-01-15T11:13:10.312Z,-0.70
2018-01-15T11:15:37.869Z,-0.70
2018-01-15T11:18:07.362Z,-0.70
2018-01-15T11:20:34.925Z,-0.60
2018-01-15T11:23:02.466Z,-0.60
2018-01-15T11:25:30.302Z,-0.70
2018-01-15T11:27:57.916Z,-0.70
2018-01-15T11:30:25.493Z,-0.60
2018-01-15T11:32:53.049Z,-0.60
2018-01-15T11:35:20.595Z,-0.50
2018-01-15T11:37:49.016Z,-0.40
2018-01-15T11:40:17.359Z,-0.60
2018-01-15T11:42:45.680Z,-0.70
2018-01-15T11:45:13.222Z,-0.70
2018-01-15T11:47:40.766Z,-0.70
2018-01-15T11:50:09.095Z,-0.70
2018-01-15T11:52:36.640Z,-0.60
2018-01-15T11:55:04.711Z,-0.70
2018-01-15T11:57:33.283Z,-0.70
2018-01-15T12:00:03.619Z,-0.70
2018-01-15T12:02:31.205Z,-0.70
2018-01-15T12:04:58.922Z,-0.60
2018-01-15T12:07:27.315Z,-0.80
2018-01-15T12:09:55.633Z,-0.90
2018-01-15T12:12:23.652Z,-0.90
2018-01-15T12:14:51.259Z,-0.90
2018-01-15T12:17:19.856Z,-0.90
2018-01-15T12:19:49.413Z,-0.90
2018-01-15T12:22:17.117Z,-0.90
2018-01-15T12:24:55.184Z,-0.90
2018-01-15T12:27:22.765Z,-0.90
2018-01-15T12:29:51.082Z,-0.90
2018-01-15T12:32:18.628Z,-1.00
2018-01-15T12:34:46.895Z,-0.90
2018-01-15T12:37:15.417Z,-1.00
2018-01-15T12:39:44.269Z,-1.00
2018-01-15T12:42:13.364Z,-1.00
2018-01-15T12:44:40.959Z,-1.00
2018-01-15T12:47:08.507Z,-1.00
2018-01-15T12:49:36.116Z,-1.00
2018-01-15T12:52:03.658Z,-1.00
2018-01-15T12:54:31.208Z,-0.90
2018-01-15T12:56:58.780Z,-0.90
2018-01-15T12:59:26.336Z,-1.00
2018-01-15T13:01:53.884Z,-0.90
2018-01-15T13:04:21.480Z,-0.90
2018-01-15T13:06:55.815Z,-1.00
2018-01-15T13:09:23.589Z,-0.90
2018-01-15T13:11:52.043Z,-0.90
2018-01-15T13:14:19.683Z,-0.90
2018-01-15T13:16:47.292Z,-0.90
2018-01-15T13:19:15.380Z,-0.90
2018-01-15T13:21:42.941Z,-0.90
2018-01-15T13:24:10.960Z,-0.90
2018-01-15T13:26:39.570Z,-1.00
2018-01-15T13:29:07.132Z,-1.00
2018-01-15T13:31:34.756Z,-1.10
2018-01-15T13:34:02.324Z,-1.10
2018-01-15T13:36:29.933Z,-1.10
2018-01-15T13:38:57.557Z,-1.10
2018-01-15T13:41:25.196Z,-1.10
2018-01-15T13:43:52.747Z,-1.10
2018-01-15T13:46:20.326Z,-1.20
2018-01-15T13:48:47.920Z,-1.20
2018-01-15T13:51:15.475Z,-1.30
2018-01-15T13:53:43.020Z,-1.30
2018-01-15T13:56:10.581Z,-1.30
2018-01-15T13:58:38.159Z,-1.30
2018-01-15T14:01:05.746Z,-1.30
2018-01-15T14:03:34.127Z,-1.40
2018-01-15T14:06:01.675Z,-1.40
2018-01-15T14:08:29.312Z,-1.40
2018-01-15T14:10:56.856Z,-1.40
2018-01-15T14:13:24.481Z,-1.40
2018-01-15T14:15:52.027Z,-1.50
2018-01-15T14:18:19.586Z,-1.50
2018-01-15T14:20:47.152Z,-1.50
2018-01-15T14:23:14.712Z,-1.50
2018-01-15T14:25:42.259Z,-1.50
2018-01-15T14:28:09.808Z,-1.50
2018-01-15T14:30:37.356Z,-1.50
2018-01-15T14:33:04.907Z,-1.50
2018-01-15T14:35:32.470Z,-1.50
2018-01-15T14:38:00.790Z,-1.60
2018-01-15T14:40:28.347Z,-1.60
2018-01-15T14:42:55.916Z,-1.60
2018-01-15T14:45:23.468Z,-1.60
2018-01-15T14:47:51.020Z,-1.60
2018-01-15T14:50:18.607Z,-1.70
2018-01-15T14:52:46.160Z,-1.70
2018-01-15T14:55:13.724Z,-1.70
2018-01-15T14:57:41.280Z,-1.70
2018-01-15T15:00:08.826Z,-1.70
2018-01-15T15:02:37.145Z,-1.80
2018-01-15T15:05:04.704Z,-1.80
2018-01-15T15:07:32.257Z,-1.80
2018-01-15T15:10:00.572Z,-1.80
2018-01-15T15:12:28.139Z,-1.80
2018-01-15T15:14:55.704Z,-1.80
2018-01-15T15:17:23.249Z,-1.80
2018-01-15T15:19:50.815Z,-1.80
2018-01-15T15:22:18.373Z,-1.80
2018-01-15T15:24:45.917Z,-1.80
2018-01-15T15:27:14.232Z,-1.80
2018-01-15T15:29:41.780Z,-1.80
2018-01-15T15:32:09.328Z,-1.90
2018-01-15T15:34:37.639Z,-1.90
2018-01-15T15:37:05.188Z,-1.90
2018-01-15T15:39:32.779Z,-1.90
2018-01-15T15:42:01.236Z,-1.90
2018-01-15T15:44:28.784Z,-1.90
2018-01-15T15:46:57.100Z,-1.90
2018-01-15T15:49:24.656Z,-1.90
2018-01-15T15:51:53.135Z,-1.90
2018-01-15T15:54:21.908Z,-1.90
2018-01-15T15:56:50.228Z,-2.00
2018-01-15T15:59:17.872Z,-2.00
2018-01-15T16:01:47.381Z,-1.90
2018-01-15T16:04:14.935Z,-2.00
2018-01-15T16:06:43.440Z,-2.00
2018-01-15T16:09:11.022Z,-2.00
2018-01-15T16:11:38.573Z,-1.90
2018-01-15T16:14:06.124Z,-1.90
2018-01-15T16:16:33.688Z,-2.00
2018-01-15T16:19:01.244Z,-2.00
2018-01-15T16:21:35.563Z,-2.00
2018-01-15T16:24:03.127Z,-2.00
2018-01-15T16:26:31.578Z,-2.00
2018-01-15T16:28:59.127Z,-2.00
2018-01-15T16:31:26.676Z,-2.00
2018-01-15T16:33:54.232Z,-2.00
2018-01-15T16:36:21.785Z,-2.00
2018-01-15T16:38:49.369Z,-1.90
2018-01-15T16:41:16.915Z,-2.00
2018-01-15T16:43:45.262Z,-2.00
2018-01-15T16:46:13.579Z,-2.00
2018-01-15T16:48:41.145Z,-2.00
2018-01-15T16:51:08.700Z,-2.00
2018-01-15T16:53:36.305Z,-2.00
2018-01-15T16:56:03.860Z,-2.00
2018-01-15T16:58:31.408Z,-2.00
2018-01-15T17:00:58.967Z,-2.00
2018-01-15T17:03:26.551Z,-1.90
2018-01-15T17:05:56.018Z,-2.00
2018-01-15T17:08:23.564Z,-2.00
2018-01-15T17:10:51.874Z,-2.00
2018-01-15T17:13:19.423Z,-2.00
2018-01-15T17:15:46.990Z,-2.00
2018-01-15T17:18:14.586Z,-1.90
2018-01-15T17:20:42.136Z,-1.90
2018-01-15T17:23:09.792Z,-2.00
2018-01-15T17:25:37.339Z,-2.00
2018-01-15T17:28:05.646Z,-2.00
2018-01-15T17:30:33.200Z,-2.00
2018-01-15T17:33:00.747Z,-2.00
2018-01-15T17:35:28.303Z,-2.00
2018-01-15T17:37:56.622Z,-2.00
2018-01-15T17:40:24.200Z,-2.00
2018-01-15T17:42:51.752Z,-2.00
2018-01-15T17:45:19.296Z,-2.00
2018-01-15T17:47:46.849Z,-2.00
2018-01-15T17:50:15.163Z,-2.00
2018-01-15T17:52:42.707Z,-2.00
2018-01-15T17:55:10.264Z,-2.10
2018-01-15T17:57:37.808Z,-2.00
2018-01-15T18:00:05.375Z,-2.00
2018-01-15T18:02:32.944Z,-2.00
2018-01-15T18:05:01.263Z,-2.10
2018-01-15T18:07:28.819Z,-2.10
2018-01-15T18:09:56.371Z,-2.00
2018-01-15T18:12:23.932Z,-2.10
2018-01-15T18:14:51.479Z,-2.10
2018-01-15T18:17:19.032Z,-2.10
2018-01-15T18:19:46.584Z,-2.10
2018-01-15T18:22:14.132Z,-2.10
2018-01-15T18:24:41.693Z,-2.00
2018-01-15T18:27:09.278Z,-2.10
2018-01-15T18:29:36.832Z,-2.10
2018-01-15T18:32:04.381Z,-2.10
2018-01-15T18:34:31.933Z,-2.10
2018-01-15T18:36:59.488Z,-2.10
2018-01-15T18:39:27.071Z,-2.10
2018-01-15T18:41:54.630Z,-2.10
2018-01-15T18:44:22.206Z,-2.10
2018-01-15T18:46:49.785Z,-2.20
2018-01-15T18:49:20.803Z,-2.10
2018-01-15T18:51:48.357Z,-2.10
2018-01-15T18:54:16.752Z,-2.20
2018-01-15T18:56:44.327Z,-2.20
2018-01-15T18:59:11.904Z,-2.20
2018-01-15T19:01:39.466Z,-2.20
2018-01-15T19:04:07.042Z,-2.20
2018-01-15T19:06:34.605Z,-2.10
2018-01-15T19:09:02.201Z,-2.20
2018-01-15T19:11:29.781Z,-2.10
2018-01-15T19:13:57.362Z,-2.20
2018-01-15T19:16:24.911Z,-2.10
2018-01-15T19:18:52.456Z,-2.20
2018-01-15T19:21:20.011Z,-2.20
2018-01-15T19:23:47.561Z,-2.20
2018-01-15T19:26:15.155Z,-2.20
2018-01-15T19:28:42.731Z,-2.20
2018-01-15T19:31:10.279Z,-2.20
2018-01-15T19:33:37.856Z,-2.20
2018-01-15T19:36:11.139Z,-2.20
2018-01-15T19:38:39.454Z,-2.20
2018-01-15T19:41:10.274Z,-2.20
2018-01-15T19:46:46.009Z,-2.20
2018-01-15T19:49:19.272Z,-2.20
2018-01-15T19:51:52.422Z,-2.20
2018-01-15T19:54:25.628Z,-2.10
2018-01-15T19:56:58.817Z,-2.20
2018-01-15T19:59:31.961Z,-2.20
2018-01-15T20:02:05.799Z,-2.10
2018-01-15T20:04:39.054Z,-2.10
2018-01-15T20:07:12.296Z,-2.10
2018-01-15T20:09:45.481Z,-2.00
2018-01-15T20:12:13.081Z,-2.00
2018-01-15T20:14:40.735Z,-2.00
2018-01-15T20:17:08.304Z,-2.00
2018-01-15T20:19:35.923Z,-2.00
2018-01-15T20:22:03.503Z,-2.00
2018-01-15T20:24:31.086Z,-2.00
2018-01-15T20:26:58.669Z,-2.00
2018-01-15T20:29:26.245Z,-1.90
2018-01-15T20:31:53.809Z,-2.00
2018-01-15T20:34:21.395Z,-2.00
2018-01-15T20:36:48.956Z,-2.00
2018-01-15T20:39:17.302Z,-2.00
2018-01-15T20:41:44.844Z,-2.10
2018-01-15T20:44:12.388Z,-2.10
2018-01-15T20:46:39.932Z,-2.10
2018-01-15T20:49:08.247Z,-2.10
2018-01-15T20:51:35.846Z,-2.20
2018-01-15T20:54:03.388Z,-2.20
2018-01-15T20:56:30.933Z,-2.20
2018-01-15T20:58:58.475Z,-2.20
2018-01-15T21:01:26.027Z,-2.20
2018-01-15T21:03:54.345Z,-2.30
2018-01-15T21:06:21.923Z,-2.30
2018-01-15T21:08:49.476Z,-2.30
2018-01-15T21:11:17.071Z,-2.30
2018-01-15T21:13:44.614Z,-2.30
2018-01-15T21:16:12.163Z,-2.30
2018-01-15T21:18:39.704Z,-2.40
2018-01-15T21:21:08.012Z,-2.40
2018-01-15T21:23:35.560Z,-2.40
2018-01-15T21:26:03.108Z,-2.40
2018-01-15T21:28:30.661Z,-2.40
2018-01-15T21:30:58.199Z,-2.40
2018-01-15T21:33:25.740Z,-2.40
2018-01-15T21:36:00.411Z,-2.40
2018-01-15T21:38:27.952Z,-2.40
2018-01-15T21:40:55.496Z,-2.40
2018-01-15T21:43:23.045Z,-2.40
2018-01-15T21:45:50.598Z,-2.40
2018-01-15T21:48:18.144Z,-2.40
2018-01-15T21:50:46.456Z,-2.30
2018-01-15T21:53:13.994Z,-2.30
2018-01-15T21:55:41.531Z,-2.30
2018-01-15T21:58:09.072Z,-2.30
2018-01-15T22:00:36.623Z,-2.30
2018-01-15T22:03:04.176Z,-2.30
2018-01-15T22:05:31.768Z,-2.30
2018-01-15T22:07:59.308Z,-2.30
2018-01-15T22:10:26.848Z,-2.30
2018-01-15T22:12:54.388Z,-2.30
2018-01-15T22:15:21.931Z,-2.30
2018-01-15T22:17:49.474Z,-2.30
2018-01-15T22:20:17.022Z,-2.30
2018-01-15T22:22:44.560Z,-2.20
2018-01-15T22:25:12.106Z,-2.20
2018-01-15T22:27:39.644Z,-2.20
2018-01-15T22:30:07.231Z,-2.20
2018-01-15T22:32:34.823Z,-2.20
2018-01-15T22:35:02.425Z,-2.20
2018-01-15T22:37:29.963Z,-2.20
2018-01-15T22:39:57.509Z,-2.20
2018-01-15T22:42:25.824Z,-2.20
2018-01-15T22:44:53.359Z,-2.20
2018-01-15T22:47:20.898Z,-2.20
2018-01-15T22:49:48.444Z,-2.20
2018-01-15T22:52:15.983Z,-2.20
2018-01-15T22:54:43.539Z,-2.10
2018-01-15T22:57:11.079Z,-2.10
2018-01-15T22:59:38.640Z,-2.10
2018-01-15T23:02:06.963Z,-2.10
2018-01-15T23:04:34.504Z,-2.10
2018-01-15T23:07:02.068Z,-2.10
2018-01-15T23:09:33.112Z,-2.10
2018-01-15T23:12:00.652Z,-2.00
2018-01-15T23:14:28.960Z,-2.00
2018-01-15T23:16:56.503Z,-2.00
2018-01-15T23:19:24.050Z,-2.00
2018-01-15T23:21:51.592Z,-2.00
2018-01-15T23:24:19.135Z,-2.00
2018-01-15T23:26:46.678Z,-2.00
2018-01-15T23:29:14.222Z,-2.00
2018-01-15T23:31:41.799Z,-2.00
2018-01-15T23:34:09.379Z,-2.10
2018-01-15T23:36:36.936Z,-2.10
2018-01-15T23:39:04.479Z,-2.10
2018-01-15T23:41:32.025Z,-2.10
2018-01-15T23:44:00.335Z,-2.10
2018-01-15T23:46:27.883Z,-2.10
2018-01-15T23:48:55.426Z,-2.10
2018-01-15T23:51:22.968Z,-2.10
2018-01-15T23:53:50.507Z,-2.10
2018-01-15T23:56:18.051Z,-2.10
2018-01-15T23:58:45.608Z,-2.10
